createdAt,value
2019-05-03T00:01:38.083Z,2.50
2019-05-03T00:04:05.461Z,2.00
2019-05-03T00:06:32.717Z,2.60
2019-05-03T00:09:01.542Z,3.10
2019-05-03T00:11:28.941Z,2.57
2019-05-03T00:13:56.525Z,2.80
2019-05-03T00:16:29.170Z,2.30
2019-05-03T00:18:56.461Z,2.53
2019-05-03T00:21:23.922Z,2.27
2019-05-03T00:23:52.300Z,2.20
2019-05-03T00:26:39.410Z,2.00
2019-05-03T00:29:06.662Z,2.60
2019-05-03T00:31:34.094Z,3.03
2019-05-03T00:34:25.862Z,2.47
2019-05-03T00:39:49.412Z,2.30
2019-05-03T00:42:16.601Z,2.10
2019-05-03T00:44:44.178Z,2.57
2019-05-03T00:47:12.577Z,3.70
2019-05-03T00:49:39.828Z,2.47
2019-05-03T00:52:07.141Z,2.30
2019-05-03T00:54:34.323Z,2.43
2019-05-03T00:57:02.664Z,3.47
2019-05-03T00:59:32.479Z,2.50
2019-05-03T01:01:59.953Z,2.30
2019-05-03T01:04:27.611Z,2.70
2019-05-03T01:06:54.855Z,2.70
2019-05-03T01:09:23.617Z,2.70
2019-05-03T01:11:52.456Z,2.40
2019-05-03T01:14:19.868Z,2.83
2019-05-03T01:17:07.024Z,2.50
2019-05-03T01:19:34.253Z,2.90
2019-05-03T01:22:02.040Z,2.50
2019-05-03T01:24:29.839Z,2.23
2019-05-03T01:26:56.888Z,2.40
2019-05-03T01:29:24.431Z,2.17
2019-05-03T01:31:52.823Z,2.57
2019-05-03T01:34:21.783Z,2.07
2019-05-03T01:37:09.286Z,2.90
2019-05-03T01:39:36.597Z,2.70
2019-05-03T01:42:03.852Z,2.20
2019-05-03T01:44:32.698Z,2.70
2019-05-03T01:47:26.951Z,2.40
2019-05-03T01:50:23.594Z,2.10
2019-05-03T01:52:52.453Z,2.13
2019-05-03T01:55:19.902Z,2.33
2019-05-03T01:58:06.784Z,2.10
2019-05-03T02:00:34.523Z,2.60
2019-05-03T02:03:07.978Z,2.33
2019-05-03T02:05:51.925Z,2.20
2019-05-03T02:08:19.345Z,2.23
2019-05-03T02:10:47.440Z,2.17
2019-05-03T02:13:14.825Z,2.33
2019-05-03T02:16:02.300Z,3.17
2019-05-03T02:18:31.693Z,1.80
2019-05-03T02:20:58.911Z,2.10
2019-05-03T02:23:26.629Z,1.90
2019-05-03T02:25:57.683Z,2.03
2019-05-03T02:28:23.014Z,1.80
2019-05-03T02:30:53.258Z,2.30
2019-05-03T02:33:20.064Z,2.10
2019-05-03T02:35:47.861Z,2.50
2019-05-03T02:38:15.018Z,1.97
2019-05-03T02:40:43.139Z,2.40
2019-05-03T02:43:36.166Z,2.13
2019-05-03T02:46:29.828Z,2.13
2019-05-03T02:49:35.247Z,2.10
2019-05-03T02:52:27.974Z,2.50
2019-05-03T02:54:55.494Z,1.87
2019-05-03T02:57:25.701Z,2.00
2019-05-03T02:59:54.819Z,1.90
2019-05-03T03:02:41.185Z,2.27
2019-05-03T03:05:08.885Z,1.90
2019-05-03T03:07:37.669Z,2.27
2019-05-03T03:10:05.792Z,1.90
2019-05-03T03:12:35.402Z,2.10
2019-05-03T03:15:21.482Z,1.80
2019-05-03T03:17:48.692Z,1.83
2019-05-03T03:20:35.813Z,1.60
2019-05-03T03:23:05.994Z,1.83
2019-05-03T03:25:36.175Z,1.60
2019-05-03T03:28:05.313Z,2.20
2019-05-03T03:31:20.893Z,1.87
2019-05-03T03:33:48.509Z,1.93
2019-05-03T03:36:38.010Z,1.83
2019-05-03T03:38:45.912Z,1.40
2019-05-03T03:41:16.183Z,1.70
2019-05-03T03:43:46.071Z,1.87
2019-05-03T03:46:15.339Z,1.60
2019-05-03T03:48:42.646Z,1.50
2019-05-03T03:51:34.937Z,1.50
2019-05-03T03:54:06.029Z,1.57
2019-05-03T03:56:37.183Z,1.43
2019-05-03T03:59:02.564Z,1.73
2019-05-03T04:01:29.989Z,1.30
2019-05-03T04:03:57.334Z,1.27
2019-05-03T04:06:39.918Z,1.70
2019-05-03T04:09:07.352Z,1.20
2019-05-03T04:11:35.150Z,1.10
2019-05-03T04:14:05.243Z,1.43
2019-05-03T04:16:41.724Z,1.40
2019-05-03T04:19:22.019Z,1.13
2019-05-03T04:21:49.781Z,1.67
2019-05-03T04:24:17.114Z,1.30
2019-05-03T04:27:18.426Z,1.23
2019-05-03T04:29:35.850Z,1.37
2019-05-03T04:32:06.012Z,1.33
2019-05-03T04:34:35.651Z,1.20
2019-05-03T04:37:05.191Z,1.20
2019-05-03T04:39:32.135Z,1.30
2019-05-03T04:41:59.494Z,2.23
2019-05-03T04:44:27.011Z,1.67
2019-05-03T04:46:56.110Z,1.13
2019-05-03T04:49:26.100Z,1.80
2019-05-03T04:51:52.639Z,1.40
2019-05-03T04:54:32.758Z,1.63
2019-05-03T04:57:00.286Z,1.30
2019-05-03T04:59:27.598Z,1.70
2019-05-03T05:02:15.983Z,1.17
2019-05-03T05:04:46.044Z,1.33
2019-05-03T05:07:12.413Z,1.40
2019-05-03T05:09:40.242Z,1.17
2019-05-03T05:12:07.423Z,1.60
2019-05-03T05:14:35.407Z,1.37
2019-05-03T05:17:05.847Z,1.27
2019-05-03T05:19:44.606Z,1.23
2019-05-03T05:22:13.056Z,1.37
2019-05-03T05:24:40.133Z,1.50
2019-05-03T05:27:30.514Z,1.63
2019-05-03T05:30:01.252Z,1.37
2019-05-03T05:32:28.929Z,1.47
2019-05-03T05:34:56.054Z,1.40
2019-05-03T05:37:25.024Z,1.40
2019-05-03T05:39:52.732Z,1.50
2019-05-03T05:42:22.232Z,1.10
2019-05-03T05:44:49.475Z,1.80
2019-05-03T05:47:37.149Z,1.70
2019-05-03T05:50:15.994Z,1.40
2019-05-03T05:52:44.797Z,1.67
2019-05-03T05:55:25.288Z,1.30
2019-05-03T05:58:07.507Z,1.37
2019-05-03T06:00:45.421Z,1.50
2019-05-03T06:03:14.836Z,1.20
2019-05-03T06:05:44.659Z,1.50
2019-05-03T06:08:36.332Z,1.30
2019-05-03T06:11:10.982Z,1.70
2019-05-03T06:13:44.438Z,1.10
2019-05-03T06:16:26.237Z,1.10
2019-05-03T06:19:19.409Z,1.30
2019-05-03T06:22:12.792Z,0.90
2019-05-03T06:24:49.032Z,0.80
2019-05-03T06:27:24.410Z,1.37
2019-05-03T06:29:54.598Z,0.93
2019-05-03T06:32:36.670Z,0.90
2019-05-03T06:35:04.949Z,1.17
2019-05-03T06:37:38.255Z,1.00
2019-05-03T06:40:06.226Z,1.27
2019-05-03T06:42:35.448Z,1.00
2019-05-03T06:45:08.255Z,0.93
2019-05-03T06:47:51.945Z,1.10
2019-05-03T06:50:24.197Z,1.10
2019-05-03T06:52:51.284Z,1.40
2019-05-03T06:55:18.814Z,1.27
2019-05-03T06:57:50.442Z,1.40
2019-05-03T07:00:49.300Z,0.90
2019-05-03T07:03:51.655Z,1.20
2019-05-03T07:06:41.502Z,1.23
2019-05-03T07:09:35.406Z,1.10
2019-05-03T07:12:04.499Z,1.10
2019-05-03T07:14:32.084Z,1.23
2019-05-03T07:17:01.846Z,1.40
2019-05-03T07:19:29.660Z,1.00
2019-05-03T07:21:57.165Z,0.97
2019-05-03T07:24:24.970Z,1.30
2019-05-03T07:27:12.315Z,1.17
2019-05-03T07:29:39.815Z,1.20
2019-05-03T07:32:07.454Z,1.50
2019-05-03T07:34:35.200Z,1.30
2019-05-03T07:37:02.968Z,1.07
2019-05-03T07:39:30.248Z,1.13
2019-05-03T07:41:57.688Z,0.90
2019-05-03T07:44:25.657Z,0.97
2019-05-03T07:46:55.323Z,1.33
2019-05-03T07:49:22.328Z,1.13
2019-05-03T07:51:49.673Z,1.00
2019-05-03T07:54:17.616Z,0.80
2019-05-03T07:57:25.632Z,1.20
2019-05-03T07:59:55.521Z,1.10
2019-05-03T08:02:25.137Z,1.30
2019-05-03T08:04:51.840Z,0.83
2019-05-03T08:07:22.420Z,1.00
2019-05-03T08:09:49.014Z,1.53
2019-05-03T08:12:16.797Z,1.27
2019-05-03T08:14:44.657Z,1.20
2019-05-03T08:17:12.388Z,1.00
2019-05-03T08:19:40.319Z,1.67
2019-05-03T08:22:07.698Z,0.93
2019-05-03T08:24:35.630Z,1.13
2019-05-03T08:27:04.828Z,1.30
2019-05-03T08:29:32.317Z,1.20
2019-05-03T08:32:12.749Z,0.90
2019-05-03T08:35:12.225Z,1.10
2019-05-03T08:37:51.618Z,1.10
2019-05-03T08:40:19.931Z,0.90
2019-05-03T08:42:47.350Z,1.17
2019-05-03T08:45:18.834Z,1.10
2019-05-03T08:47:46.310Z,1.20
2019-05-03T08:50:20.738Z,1.13
2019-05-03T08:52:45.166Z,1.20
2019-05-03T08:55:15.632Z,1.40
2019-05-03T08:57:44.746Z,1.10
2019-05-03T09:00:35.304Z,1.20
2019-05-03T09:03:05.253Z,1.30
2019-05-03T09:05:35.800Z,1.20
2019-05-03T09:08:05.406Z,1.60
2019-05-03T09:11:08.882Z,1.10
2019-05-03T09:13:47.991Z,1.43
2019-05-03T09:16:15.452Z,1.00
2019-05-03T09:18:45.257Z,1.30
2019-05-03T09:21:14.666Z,1.10
2019-05-03T09:23:42.509Z,1.43
2019-05-03T09:26:09.996Z,0.90
2019-05-03T09:28:37.763Z,1.60
2019-05-03T09:31:08.620Z,1.20
2019-05-03T09:33:36.479Z,1.33
2019-05-03T09:36:05.373Z,1.23
2019-05-03T09:38:34.999Z,1.07
2019-05-03T09:41:05.099Z,1.30
2019-05-03T09:43:35.712Z,1.47
2019-05-03T09:46:05.022Z,1.07
2019-05-03T09:48:34.549Z,1.00
2019-05-03T09:51:02.014Z,1.27
2019-05-03T09:53:35.142Z,1.20
2019-05-03T09:56:04.911Z,1.30
2019-05-03T09:58:35.274Z,1.70
2019-05-03T10:01:05.078Z,1.40
2019-05-03T10:03:31.484Z,1.00
2019-05-03T10:05:59.300Z,1.10
2019-05-03T10:08:27.148Z,1.10
2019-05-03T10:11:09.810Z,1.20
2019-05-03T10:13:37.788Z,1.20
2019-05-03T10:16:06.144Z,1.43
2019-05-03T10:18:34.947Z,2.20
2019-05-03T10:21:05.083Z,0.93
2019-05-03T10:23:38.588Z,1.20
2019-05-03T10:26:06.337Z,1.00
2019-05-03T10:28:34.209Z,1.40
2019-05-03T10:31:07.670Z,1.20
2019-05-03T10:34:01.023Z,1.00
2019-05-03T10:36:28.154Z,1.20
2019-05-03T10:38:55.645Z,0.93
2019-05-03T10:41:25.073Z,0.97
2019-05-03T10:43:55.463Z,0.80
2019-05-03T10:46:24.928Z,0.77
2019-05-03T10:48:52.726Z,0.80
2019-05-03T10:51:24.819Z,1.10
2019-05-03T10:53:57.068Z,0.80
2019-05-03T10:56:59.371Z,1.40
2019-05-03T10:59:27.088Z,1.13
2019-05-03T11:02:12.832Z,0.97
2019-05-03T11:04:43.519Z,0.97
2019-05-03T11:07:09.813Z,1.00
2019-05-03T11:09:48.885Z,1.00
2019-05-03T11:12:29.293Z,0.90
2019-05-03T11:14:56.791Z,1.00
2019-05-03T11:17:25.654Z,0.93
2019-05-03T11:19:54.717Z,1.10
2019-05-03T11:22:41.833Z,1.30
2019-05-03T11:25:09.722Z,1.13
2019-05-03T11:27:45.988Z,1.20
2019-05-03T11:30:19.313Z,1.10
2019-05-03T11:33:06.392Z,1.60
2019-05-03T11:35:52.651Z,1.03
2019-05-03T11:38:28.476Z,1.07
2019-05-03T11:40:56.428Z,0.97
2019-05-03T11:43:24.785Z,1.23
2019-05-03T11:45:52.596Z,0.87
2019-05-03T11:48:20.570Z,1.10
2019-05-03T11:50:47.989Z,1.23
2019-05-03T11:53:17.780Z,1.10
2019-05-03T11:55:46.462Z,1.23
2019-05-03T11:58:34.615Z,1.00
2019-05-03T12:01:19.548Z,1.20
2019-05-03T12:03:48.370Z,1.40
2019-05-03T12:06:29.071Z,1.10
2019-05-03T12:08:56.666Z,1.40
2019-05-03T12:11:43.567Z,1.30
2019-05-03T12:14:30.207Z,1.10
2019-05-03T12:17:19.603Z,1.20
2019-05-03T12:19:36.837Z,0.90
2019-05-03T12:22:23.631Z,1.13
2019-05-03T12:24:52.398Z,1.13
2019-05-03T12:27:20.193Z,0.93
2019-05-03T12:29:47.892Z,1.37
2019-05-03T12:32:34.771Z,1.53
2019-05-03T12:35:02.229Z,1.00
2019-05-03T12:37:29.520Z,1.63
2019-05-03T12:39:57.156Z,0.90
2019-05-03T12:42:25.610Z,1.00
2019-05-03T12:44:55.097Z,1.10
2019-05-03T12:47:22.380Z,1.17
2019-05-03T12:49:50.242Z,1.17
2019-05-03T12:52:18.273Z,1.27
2019-05-03T12:54:45.928Z,1.30
2019-05-03T12:57:15.379Z,1.00
2019-05-03T13:00:05.054Z,1.10
2019-05-03T13:02:40.270Z,0.90
2019-05-03T13:05:08.269Z,1.10
2019-05-03T13:07:40.817Z,1.47
2019-05-03T13:10:08.951Z,1.30
2019-05-03T13:12:49.782Z,1.07
2019-05-03T13:15:07.419Z,1.00
2019-05-03T13:17:35.934Z,1.50
2019-05-03T13:20:05.352Z,1.40
2019-05-03T13:22:35.061Z,1.57
2019-05-03T13:25:03.509Z,1.20
2019-05-03T13:27:31.190Z,1.00
2019-05-03T13:29:58.963Z,1.77
2019-05-03T13:32:26.700Z,1.20
2019-05-03T13:34:55.319Z,1.03
2019-05-03T13:37:25.273Z,1.47
2019-05-03T13:40:12.137Z,0.93
2019-05-03T13:42:53.410Z,1.60
2019-05-03T13:45:12.431Z,1.20
2019-05-03T13:47:46.204Z,1.00
2019-05-03T13:50:15.134Z,1.43
2019-05-03T13:52:45.142Z,1.07
2019-05-03T13:55:14.541Z,0.83
2019-05-03T13:57:42.346Z,1.40
2019-05-03T14:00:10.443Z,1.23
2019-05-03T14:02:37.625Z,1.03
2019-05-03T14:05:05.726Z,1.10
2019-05-03T14:07:35.209Z,1.20
2019-05-03T14:10:05.483Z,0.90
2019-05-03T14:12:34.920Z,1.13
2019-05-03T14:15:02.152Z,1.00
2019-05-03T14:17:49.358Z,1.00
2019-05-03T14:20:26.085Z,1.30
2019-05-03T14:22:53.780Z,0.90
2019-05-03T14:25:21.143Z,0.90
2019-05-03T14:28:08.113Z,0.90
2019-05-03T14:30:35.553Z,1.30
2019-05-03T14:33:05.039Z,1.40
2019-05-03T14:35:34.651Z,0.93
2019-05-03T14:38:02.008Z,1.20
2019-05-03T14:40:29.781Z,1.57
2019-05-03T14:42:57.646Z,1.13
2019-05-03T14:45:25.546Z,0.97
2019-05-03T14:47:54.755Z,0.90
2019-05-03T14:50:45.578Z,0.90
2019-05-03T14:53:34.795Z,1.30
2019-05-03T14:56:15.011Z,0.93
2019-05-03T14:59:07.995Z,1.20
2019-05-03T15:01:55.200Z,1.00
2019-05-03T15:04:22.709Z,1.20
2019-05-03T15:06:50.411Z,1.00
2019-05-03T15:09:19.135Z,1.20
2019-05-03T15:11:46.826Z,0.90
2019-05-03T15:14:14.612Z,2.37
2019-05-03T15:16:41.993Z,1.03
2019-05-03T15:19:09.124Z,1.10
2019-05-03T15:21:37.143Z,1.00
2019-05-03T15:24:18.983Z,1.40
2019-05-03T15:26:46.958Z,1.10
2019-05-03T15:29:15.555Z,0.90
2019-05-03T15:31:44.736Z,1.00
2019-05-03T15:34:17.528Z,1.00
2019-05-03T15:36:47.334Z,1.00
2019-05-03T15:39:27.793Z,1.40
2019-05-03T15:41:54.393Z,1.17
2019-05-03T15:44:45.011Z,1.10
2019-05-03T15:47:18.225Z,1.50
2019-05-03T15:49:46.139Z,1.00
2019-05-03T15:52:24.694Z,1.20
2019-05-03T15:54:52.386Z,1.10
2019-05-03T15:57:30.077Z,1.20
2019-05-03T15:59:58.196Z,1.50
2019-05-03T16:02:25.999Z,1.17
2019-05-03T16:05:02.344Z,1.37
2019-05-03T16:07:30.307Z,1.40
2019-05-03T16:10:17.413Z,1.10
2019-05-03T16:12:45.101Z,1.20
2019-05-03T16:15:24.444Z,1.10
2019-05-03T16:18:41.786Z,1.30
2019-05-03T16:21:21.079Z,1.10
2019-05-03T16:23:49.079Z,1.23
2019-05-03T16:26:16.479Z,1.60
2019-05-03T16:28:51.705Z,1.07
2019-05-03T16:31:21.003Z,0.90
2019-05-03T16:33:48.683Z,1.00
2019-05-03T16:36:16.471Z,1.00
2019-05-03T16:38:49.991Z,1.00
2019-05-03T16:41:48.558Z,0.80
2019-05-03T16:43:58.502Z,1.00
2019-05-03T16:46:26.145Z,1.27
2019-05-03T16:48:56.981Z,1.03
2019-05-03T16:51:34.922Z,0.90
2019-05-03T16:54:25.443Z,1.20
2019-05-03T16:56:58.902Z,1.00
2019-05-03T16:59:35.276Z,1.30
2019-05-03T17:02:09.177Z,1.00
2019-05-03T17:04:45.257Z,1.20
2019-05-03T17:07:25.034Z,0.90
2019-05-03T17:10:12.596Z,1.00
2019-05-03T17:12:40.585Z,1.40
2019-05-03T17:15:35.340Z,1.20
2019-05-03T17:18:17.281Z,1.03
2019-05-03T17:20:45.352Z,1.20
2019-05-03T17:23:12.867Z,1.10
2019-05-03T17:25:40.575Z,0.90
2019-05-03T17:28:07.989Z,1.23
2019-05-03T17:30:37.385Z,1.03
2019-05-03T17:33:04.839Z,2.10
2019-05-03T17:35:32.091Z,1.00
2019-05-03T17:37:59.519Z,0.87
2019-05-03T17:40:49.243Z,1.03
2019-05-03T17:43:20.893Z,1.00
2019-05-03T17:45:51.336Z,1.20
2019-05-03T17:48:19.114Z,1.43
2019-05-03T17:50:46.446Z,1.53
2019-05-03T17:53:32.110Z,1.33
2019-05-03T17:59:01.603Z,1.60
2019-05-03T18:01:47.597Z,1.30
2019-05-03T18:04:35.146Z,1.17
2019-05-03T18:07:37.318Z,1.30
2019-05-03T18:10:07.969Z,1.10
2019-05-03T18:12:35.406Z,1.70
2019-05-03T18:15:22.606Z,1.37
2019-05-03T18:20:35.118Z,1.23
2019-05-03T18:23:04.969Z,1.30
2019-05-03T18:25:31.977Z,1.40
2019-05-03T18:28:19.256Z,1.40
2019-05-03T18:30:46.648Z,1.33
2019-05-03T18:33:15.339Z,2.80
2019-05-03T18:36:02.526Z,1.90
2019-05-03T18:38:35.247Z,2.13
2019-05-03T18:41:04.637Z,1.53
2019-05-03T18:43:38.469Z,1.10
2019-05-03T18:46:28.607Z,1.53
2019-05-03T18:48:58.705Z,1.30
2019-05-03T18:51:29.272Z,1.70
2019-05-03T18:53:56.334Z,1.47
2019-05-03T18:56:25.189Z,1.50
2019-05-03T18:58:54.242Z,2.03
2019-05-03T19:01:21.509Z,1.50
2019-05-03T19:03:51.613Z,1.53
2019-05-03T19:06:19.025Z,1.87
2019-05-03T19:09:11.884Z,1.40
2019-05-03T19:11:47.944Z,1.50
2019-05-03T19:14:18.219Z,1.50
2019-05-03T19:16:56.613Z,1.67
2019-05-03T19:19:27.646Z,1.50
2019-05-03T19:21:56.067Z,1.50
2019-05-03T19:24:24.573Z,1.50
2019-05-03T19:26:52.016Z,1.30
2019-05-03T19:29:19.707Z,2.27
2019-05-03T19:32:06.435Z,1.80
2019-05-03T19:34:45.401Z,1.87
2019-05-03T19:37:05.145Z,1.53
2019-05-03T19:39:34.439Z,1.80
2019-05-03T19:42:01.616Z,1.80
2019-05-03T19:44:29.261Z,2.03
2019-05-03T19:46:56.390Z,1.70
2019-05-03T19:49:24.660Z,1.97
2019-05-03T19:52:14.493Z,2.37
2019-05-03T19:54:41.928Z,1.63
2019-05-03T19:57:10.673Z,2.67
2019-05-03T19:59:50.045Z,2.90
2019-05-03T20:02:54.300Z,3.43
2019-05-03T20:05:28.800Z,2.53
2019-05-03T20:08:16.308Z,2.20
2019-05-03T20:10:45.068Z,1.90
2019-05-03T20:13:12.088Z,2.20
2019-05-03T20:15:39.261Z,2.60
2019-05-03T20:18:06.308Z,2.43
2019-05-03T20:20:55.185Z,2.50
2019-05-03T20:23:22.052Z,2.73
2019-05-03T20:25:49.559Z,3.23
2019-05-03T20:28:16.495Z,2.93
2019-05-03T20:30:45.219Z,2.80
2019-05-03T20:33:12.432Z,2.23
2019-05-03T20:35:40.637Z,2.27
2019-05-03T20:38:07.881Z,2.33
2019-05-03T20:40:35.483Z,2.27
2019-05-03T20:43:17.464Z,2.00
2019-05-03T20:46:05.017Z,3.10
2019-05-03T20:48:34.373Z,3.73
2019-05-03T20:51:02.085Z,2.43
2019-05-03T20:53:29.123Z,1.97
2019-05-03T20:55:56.289Z,3.10
2019-05-03T20:58:25.145Z,2.20
2019-05-03T21:00:52.215Z,3.40
2019-05-03T21:03:19.722Z,2.47
2019-05-03T21:05:46.696Z,2.23
2019-05-03T21:08:14.832Z,2.00
2019-05-03T21:11:01.618Z,2.07
2019-05-03T21:13:48.529Z,2.40
2019-05-03T21:16:35.626Z,3.00
2019-05-03T21:19:22.164Z,2.30
2019-05-03T21:22:15.468Z,2.37
2019-05-03T21:24:54.827Z,2.37
2019-05-03T21:27:22.081Z,1.73
2019-05-03T21:29:55.026Z,2.10
2019-05-03T21:32:21.949Z,2.07
2019-05-03T21:34:48.940Z,1.77
2019-05-03T21:37:15.991Z,1.90
2019-05-03T21:39:45.303Z,1.73
2019-05-03T21:42:12.700Z,2.00
2019-05-03T21:44:40.033Z,2.20
2019-05-03T21:47:49.155Z,2.90
2019-05-03T21:50:18.093Z,2.60
2019-05-03T21:52:45.778Z,1.77
2019-05-03T21:55:14.439Z,1.87
2019-05-03T21:57:42.353Z,1.60
2019-05-03T22:00:10.520Z,2.10
2019-05-03T22:02:38.060Z,1.77
2019-05-03T22:05:05.910Z,1.40
2019-05-03T22:07:34.909Z,1.40
2019-05-03T22:10:02.440Z,1.60
2019-05-03T22:12:30.236Z,1.40
2019-05-03T22:15:14.967Z,1.47
2019-05-03T22:18:24.736Z,1.50
2019-05-03T22:21:05.572Z,1.37
2019-05-03T22:23:58.081Z,1.20
2019-05-03T22:26:50.464Z,1.50
2019-05-03T22:29:17.603Z,1.37
2019-05-03T22:31:45.335Z,1.50
2019-05-03T22:34:12.491Z,2.23
2019-05-03T22:36:39.752Z,1.40
2019-05-03T22:39:06.911Z,1.50
2019-05-03T22:41:34.835Z,1.63
2019-05-03T22:44:01.988Z,1.93
2019-05-03T22:46:29.547Z,1.30
2019-05-03T22:48:56.716Z,1.50
2019-05-03T22:51:24.510Z,1.20
2019-05-03T22:53:51.666Z,1.30
2019-05-03T22:56:18.741Z,1.10
2019-05-03T22:58:45.980Z,1.80
2019-05-03T23:01:16.437Z,1.50
2019-05-03T23:03:44.609Z,1.30
2019-05-03T23:06:20.328Z,1.20
2019-05-03T23:08:41.573Z,1.60
2019-05-03T23:11:08.861Z,1.40
2019-05-03T23:13:36.315Z,1.37
2019-05-03T23:16:05.062Z,1.43
2019-05-03T23:18:32.305Z,1.53
2019-05-03T23:21:06.511Z,1.33
2019-05-03T23:23:50.007Z,1.30
2019-05-03T23:26:17.168Z,1.43
2019-05-03T23:28:44.573Z,1.60
2019-05-03T23:31:11.900Z,1.47
2019-05-03T23:33:39.200Z,1.30
2019-05-03T23:36:06.535Z,1.37
2019-05-03T23:38:33.886Z,1.47
2019-05-03T23:41:00.964Z,1.67
2019-05-03T23:43:28.429Z,1.53
2019-05-03T23:45:55.722Z,2.30
2019-05-03T23:48:25.278Z,1.67
2019-05-03T23:50:52.754Z,1.50
2019-05-03T23:53:19.992Z,1.57
2019-05-03T23:58:31.940Z,1.50
